createdAt,value
2023-05-15T00:00:07.312Z,4.975
2023-05-15T00:01:07.329Z,4.976
2023-05-15T00:02:07.400Z,4.931
2023-05-15T00:03:07.471Z,4.916
2023-05-15T00:04:07.402Z,4.89
2023-05-15T00:05:07.523Z,4.847
2023-05-15T00:06:07.452Z,4.862
2023-05-15T00:07:07.457Z,4.817
2023-05-15T00:08:07.483Z,4.831
2023-05-15T00:09:07.492Z,4.804
2023-05-15T00:10:07.518Z,4.817
2023-05-15T00:11:07.524Z,4.775
2023-05-15T00:12:07.526Z,4.77
2023-05-15T00:13:07.554Z,4.785
2023-05-15T00:14:07.556Z,4.755
2023-05-15T00:15:07.599Z,4.728
2023-05-15T00:16:07.709Z,4.725
2023-05-15T00:17:07.658Z,4.698
2023-05-15T00:18:07.694Z,4.712
2023-05-15T00:19:07.762Z,4.659
2023-05-15T00:20:07.708Z,4.673
2023-05-15T00:21:07.729Z,4.669
2023-05-15T00:22:07.779Z,4.683
2023-05-15T00:23:07.777Z,4.7
2023-05-15T00:24:07.818Z,4.695
2023-05-15T00:25:07.820Z,4.666
2023-05-15T00:26:07.849Z,4.681
2023-05-15T00:27:07.880Z,4.676
2023-05-15T00:28:07.903Z,4.681
2023-05-15T00:29:07.912Z,4.592
2023-05-15T00:30:07.938Z,4.622
2023-05-15T00:31:07.952Z,4.593
2023-05-15T00:32:07.963Z,4.635
2023-05-15T00:33:07.984Z,4.664
2023-05-15T00:34:07.987Z,4.627
2023-05-15T00:35:08.008Z,4.673
2023-05-15T00:36:08.017Z,4.666
2023-05-15T00:37:08.016Z,4.681
2023-05-15T00:38:08.051Z,4.687
2023-05-15T00:39:08.098Z,4.683
2023-05-15T00:40:07.118Z,4.73
2023-05-15T00:41:07.142Z,4.734
2023-05-15T00:42:07.163Z,4.706
2023-05-15T00:43:07.184Z,4.676
2023-05-15T00:44:07.202Z,4.62
2023-05-15T00:45:07.251Z,4.534
2023-05-15T00:46:07.251Z,4.475
2023-05-15T00:47:07.400Z,4.505
2023-05-15T00:48:07.303Z,4.535
2023-05-15T00:49:07.329Z,4.521
2023-05-15T00:50:07.350Z,4.487
2023-05-15T00:51:07.369Z,4.502
2023-05-15T00:52:07.407Z,4.515
2023-05-15T00:53:07.421Z,4.501
2023-05-15T00:54:07.474Z,4.483
2023-05-15T00:55:07.466Z,4.514
2023-05-15T00:56:07.482Z,4.514
2023-05-15T00:57:07.487Z,4.491
2023-05-15T00:58:07.509Z,4.442
2023-05-15T00:59:07.519Z,4.428
2023-05-15T01:00:07.526Z,4.43
2023-05-15T01:01:08.696Z,4.388
2023-05-15T01:02:07.592Z,4.403
2023-05-15T01:03:07.705Z,4.403
2023-05-15T01:04:07.605Z,4.413
2023-05-15T01:05:07.658Z,4.409
2023-05-15T01:06:07.663Z,4.405
2023-05-15T01:07:07.670Z,4.405
2023-05-15T01:08:07.685Z,4.377
2023-05-15T01:09:07.718Z,4.362
2023-05-15T01:10:07.745Z,4.321
2023-05-15T01:11:07.768Z,4.279
2023-05-15T01:12:07.793Z,4.265
2023-05-15T01:13:07.816Z,4.202
2023-05-15T01:14:07.844Z,4.12
2023-05-15T01:15:07.869Z,4.091
2023-05-15T01:16:07.886Z,4.063
2023-05-15T01:17:07.921Z,4.035
2023-05-15T01:18:07.963Z,4.015
2023-05-15T01:19:08.021Z,4.03
2023-05-15T01:20:07.986Z,3.906
2023-05-15T01:21:07.994Z,3.864
2023-05-15T01:22:08.010Z,3.801
2023-05-15T01:23:08.053Z,3.722
2023-05-15T01:24:08.042Z,3.651
2023-05-15T01:25:08.070Z,3.591
2023-05-15T01:26:08.062Z,3.569
2023-05-15T01:27:08.080Z,3.527
2023-05-15T01:28:08.080Z,3.537
2023-05-15T01:29:07.133Z,3.491
2023-05-15T01:30:07.136Z,3.487
2023-05-15T01:31:07.171Z,3.554
2023-05-15T01:32:07.232Z,3.593
2023-05-15T01:33:07.264Z,3.651
2023-05-15T01:34:07.249Z,3.668
2023-05-15T01:35:07.275Z,3.682
2023-05-15T01:36:07.300Z,3.653
2023-05-15T01:37:07.328Z,3.634
2023-05-15T01:38:07.349Z,3.677
2023-05-15T01:39:07.383Z,3.703
2023-05-15T01:40:07.407Z,3.707
2023-05-15T01:41:07.423Z,3.752
2023-05-15T01:42:07.459Z,3.797
2023-05-15T01:43:07.481Z,3.88
2023-05-15T01:44:07.509Z,3.873
2023-05-15T01:45:07.522Z,3.882
2023-05-15T01:46:07.578Z,3.883
2023-05-15T01:47:07.559Z,3.883
2023-05-15T01:48:07.673Z,3.86
2023-05-15T01:49:07.593Z,3.83
2023-05-15T01:50:07.627Z,3.815
2023-05-15T01:51:07.632Z,3.843
2023-05-15T01:52:07.648Z,3.857
2023-05-15T01:53:07.643Z,3.844
2023-05-15T01:54:07.667Z,3.83
2023-05-15T01:55:07.667Z,3.844
2023-05-15T01:56:07.696Z,3.844
2023-05-15T01:57:07.727Z,3.857
2023-05-15T01:58:07.746Z,3.844
2023-05-15T01:59:07.779Z,3.774
2023-05-15T02:00:07.822Z,3.769
2023-05-15T02:01:07.831Z,3.743
2023-05-15T02:02:07.996Z,3.714
2023-05-15T02:03:08.074Z,3.687
2023-05-15T02:04:07.923Z,3.658
2023-05-15T02:05:07.945Z,3.644
2023-05-15T02:06:07.980Z,3.645
2023-05-15T02:07:07.989Z,3.594
2023-05-15T02:08:08.024Z,3.573
2023-05-15T02:09:08.033Z,3.573
2023-05-15T02:10:08.032Z,3.586
2023-05-15T02:11:08.030Z,3.615
2023-05-15T02:12:08.041Z,3.632
2023-05-15T02:13:08.058Z,3.645
2023-05-15T02:14:08.087Z,3.609
2023-05-15T02:15:07.091Z,3.577
2023-05-15T02:16:07.125Z,3.58
2023-05-15T02:17:07.117Z,3.566
2023-05-15T02:18:07.143Z,3.539
2023-05-15T02:19:07.198Z,3.553
2023-05-15T02:20:07.168Z,3.535
2023-05-15T02:21:07.197Z,3.548
2023-05-15T02:22:07.185Z,3.548
2023-05-15T02:23:07.193Z,3.547
2023-05-15T02:24:07.202Z,3.574
2023-05-15T02:25:07.217Z,3.602
2023-05-15T02:26:07.239Z,3.617
2023-05-15T02:27:07.253Z,3.616
2023-05-15T02:28:07.267Z,3.602
2023-05-15T02:29:07.295Z,3.551
2023-05-15T02:30:07.306Z,3.553
2023-05-15T02:31:07.314Z,3.553
2023-05-15T02:32:07.456Z,3.553
2023-05-15T02:33:07.373Z,3.553
2023-05-15T02:34:07.353Z,3.567
2023-05-15T02:35:07.369Z,3.553
2023-05-15T02:36:07.369Z,3.574
2023-05-15T02:37:07.370Z,3.574
2023-05-15T02:38:07.376Z,3.573
2023-05-15T02:39:07.385Z,3.56
2023-05-15T02:40:07.405Z,3.546
2023-05-15T02:41:07.397Z,3.554
2023-05-15T02:42:07.417Z,3.553
2023-05-15T02:43:07.422Z,3.568
2023-05-15T02:44:07.410Z,3.582
2023-05-15T02:45:07.432Z,3.588
2023-05-15T02:46:07.515Z,3.602
2023-05-15T02:47:07.476Z,3.602
2023-05-15T02:48:07.589Z,3.614
2023-05-15T02:49:07.526Z,3.643
2023-05-15T02:50:07.558Z,3.656
2023-05-15T02:51:07.581Z,3.684
2023-05-15T02:52:07.616Z,3.699
2023-05-15T02:53:07.656Z,3.713
2023-05-15T02:54:07.663Z,3.712
2023-05-15T02:55:07.670Z,3.721
2023-05-15T02:56:07.704Z,3.734
2023-05-15T02:57:07.728Z,3.705
2023-05-15T02:58:07.748Z,3.68
2023-05-15T02:59:07.770Z,3.672
2023-05-15T03:00:07.794Z,3.645
2023-05-15T03:01:07.877Z,3.672
2023-05-15T03:02:07.827Z,3.652
2023-05-15T03:03:07.857Z,3.627
2023-05-15T03:04:07.899Z,3.69
2023-05-15T03:05:07.904Z,3.721
2023-05-15T03:06:07.914Z,3.733
2023-05-15T03:07:07.942Z,3.761
2023-05-15T03:08:07.953Z,3.744
2023-05-15T03:09:07.956Z,3.79
2023-05-15T03:10:07.962Z,3.852
2023-05-15T03:11:07.987Z,3.85
2023-05-15T03:12:08.014Z,3.85
2023-05-15T03:13:08.063Z,3.867
2023-05-15T03:14:08.078Z,3.839
2023-05-15T03:15:07.097Z,3.853
2023-05-15T03:16:07.112Z,3.853
2023-05-15T03:17:07.203Z,3.799
2023-05-15T03:18:07.178Z,3.757
2023-05-15T03:19:07.279Z,3.714
2023-05-15T03:20:07.209Z,3.701
2023-05-15T03:21:07.248Z,3.673
2023-05-15T03:22:07.260Z,3.687
2023-05-15T03:23:07.301Z,3.686
2023-05-15T03:24:07.341Z,3.673
2023-05-15T03:25:07.346Z,3.687
2023-05-15T03:26:07.362Z,3.702
2023-05-15T03:27:07.390Z,3.716
2023-05-15T03:28:07.412Z,3.73
2023-05-15T03:29:07.420Z,3.726
2023-05-15T03:30:07.427Z,3.753
2023-05-15T03:31:07.470Z,3.826
2023-05-15T03:32:07.449Z,3.841
2023-05-15T03:33:07.507Z,3.923
2023-05-15T03:34:07.465Z,3.936
2023-05-15T03:35:07.479Z,3.966
2023-05-15T03:36:07.494Z,3.981
2023-05-15T03:37:07.522Z,3.995
2023-05-15T03:38:07.557Z,4.016
2023-05-15T03:39:07.568Z,4.003
2023-05-15T03:40:07.598Z,3.999
2023-05-15T03:41:07.615Z,4.025
2023-05-15T03:42:07.668Z,4.007
2023-05-15T03:43:07.661Z,4.021
2023-05-15T03:44:07.703Z,4.019
2023-05-15T03:45:07.713Z,4.07
2023-05-15T03:46:07.782Z,4.067
2023-05-15T03:47:07.769Z,4.127
2023-05-15T03:48:07.915Z,4.14
2023-05-15T03:49:07.804Z,4.158
2023-05-15T03:50:07.831Z,4.214
2023-05-15T03:51:07.889Z,4.201
2023-05-15T03:52:07.876Z,4.204
2023-05-15T03:53:07.893Z,4.204
2023-05-15T03:54:07.915Z,4.233
2023-05-15T03:55:07.949Z,4.232
2023-05-15T03:56:07.948Z,4.218
2023-05-15T03:57:07.953Z,4.219
2023-05-15T03:58:07.955Z,4.278
2023-05-15T03:59:07.995Z,4.265
2023-05-15T04:00:08.001Z,4.281
2023-05-15T04:01:08.055Z,4.323
2023-05-15T04:02:08.124Z,4.329
2023-05-15T04:03:08.248Z,4.305
2023-05-15T04:04:07.105Z,4.277
2023-05-15T04:05:07.230Z,4.29
2023-05-15T04:06:07.163Z,4.277
2023-05-15T04:07:07.184Z,4.304
2023-05-15T04:08:07.210Z,4.286
2023-05-15T04:09:07.237Z,4.244
2023-05-15T04:10:07.265Z,4.209
2023-05-15T04:11:07.281Z,4.182
2023-05-15T04:12:07.305Z,4.134
2023-05-15T04:13:07.332Z,4.063
2023-05-15T04:14:07.351Z,4.006
2023-05-15T04:15:07.365Z,3.918
2023-05-15T04:16:07.497Z,3.945
2023-05-15T04:17:07.426Z,3.964
2023-05-15T04:18:07.430Z,3.945
2023-05-15T04:19:07.494Z,3.974
2023-05-15T04:20:07.466Z,3.988
2023-05-15T04:21:07.493Z,4.04
2023-05-15T04:22:07.491Z,4.054
2023-05-15T04:23:07.505Z,4.054
2023-05-15T04:24:07.500Z,4.095
2023-05-15T04:25:07.538Z,4.128
2023-05-15T04:26:07.572Z,4.197
2023-05-15T04:27:07.693Z,4.212
2023-05-15T04:28:07.611Z,4.215
2023-05-15T04:29:07.648Z,4.233
2023-05-15T04:30:07.666Z,4.284
2023-05-15T04:31:07.680Z,4.34
2023-05-15T04:32:07.824Z,4.354
2023-05-15T04:33:07.868Z,4.354
2023-05-15T04:34:07.773Z,4.367
2023-05-15T04:35:07.798Z,4.372
2023-05-15T04:36:07.840Z,4.44
2023-05-15T04:37:07.847Z,4.437
2023-05-15T04:38:07.882Z,4.438
2023-05-15T04:39:07.896Z,4.479
2023-05-15T04:40:08.045Z,4.582
2023-05-15T04:41:07.953Z,4.581
2023-05-15T04:42:07.968Z,4.595
2023-05-15T04:43:07.983Z,4.646
2023-05-15T04:44:07.993Z,4.706
2023-05-15T04:45:08.094Z,4.779
2023-05-15T04:46:08.088Z,4.794
2023-05-15T04:47:08.051Z,4.854
2023-05-15T04:48:08.120Z,4.854
2023-05-15T04:49:08.087Z,4.927
2023-05-15T04:50:07.081Z,4.989
2023-05-15T04:51:07.089Z,5.006
2023-05-15T04:52:07.117Z,5.021
2023-05-15T04:53:07.139Z,5.062
2023-05-15T04:54:07.166Z,5.05
2023-05-15T04:55:07.189Z,5.036
2023-05-15T04:56:07.209Z,5.066
2023-05-15T04:57:07.254Z,5.107
2023-05-15T04:58:07.263Z,5.116
2023-05-15T04:59:07.277Z,5.091
2023-05-15T05:00:07.295Z,5.089
2023-05-15T05:01:07.362Z,5.103
2023-05-15T05:02:07.402Z,5.148
2023-05-15T05:03:07.450Z,5.13
2023-05-15T05:04:07.524Z,5.233
2023-05-15T05:05:07.426Z,5.247
2023-05-15T05:06:07.430Z,5.344
2023-05-15T05:07:07.454Z,5.357
2023-05-15T05:08:07.472Z,5.49
2023-05-15T05:09:07.501Z,5.49
2023-05-15T05:10:07.510Z,5.508
2023-05-15T05:11:07.537Z,5.522
2023-05-15T05:12:07.550Z,5.588
2023-05-15T05:13:07.558Z,5.588
2023-05-15T05:14:07.562Z,5.628
2023-05-15T05:15:07.576Z,5.651
2023-05-15T05:16:07.605Z,5.719
2023-05-15T05:17:07.668Z,5.738
2023-05-15T05:18:07.748Z,5.775
2023-05-15T05:19:07.728Z,5.793
2023-05-15T05:20:09.366Z,5.831
2023-05-15T05:21:07.692Z,5.867
2023-05-15T05:22:07.853Z,5.853
2023-05-15T05:23:07.753Z,5.824
2023-05-15T05:24:07.769Z,5.85
2023-05-15T05:25:07.800Z,5.851
2023-05-15T05:26:07.817Z,5.863
2023-05-15T05:27:07.840Z,5.898
2023-05-15T05:28:07.874Z,5.953
2023-05-15T05:29:07.893Z,6.011
2023-05-15T05:30:07.906Z,6.047
2023-05-15T05:31:07.924Z,6.118
2023-05-15T05:32:07.943Z,6.136
2023-05-15T05:33:08.024Z,6.144
2023-05-15T05:34:07.970Z,6.17
2023-05-15T05:35:08.005Z,6.164
2023-05-15T05:36:08.004Z,6.183
2023-05-15T05:37:08.009Z,6.187
2023-05-15T05:38:08.027Z,6.217
2023-05-15T05:39:08.055Z,6.191
2023-05-15T05:40:08.081Z,6.139
2023-05-15T05:41:07.109Z,6.054
2023-05-15T05:42:07.136Z,6.1
2023-05-15T05:43:07.155Z,6.026
2023-05-15T05:44:07.175Z,6.066
2023-05-15T05:45:07.200Z,6.117
2023-05-15T05:46:07.233Z,6.139
2023-05-15T05:47:07.352Z,6.177
2023-05-15T05:48:07.282Z,6.253
2023-05-15T05:49:07.253Z,6.281
2023-05-15T05:50:07.313Z,6.225
2023-05-15T05:51:07.315Z,6.206
2023-05-15T05:52:07.364Z,6.321
2023-05-15T05:53:07.370Z,6.292
2023-05-15T05:54:07.385Z,6.381
2023-05-15T05:55:07.395Z,6.454
2023-05-15T05:56:07.427Z,6.515
2023-05-15T05:57:07.449Z,6.558
2023-05-15T05:59:07.517Z,6.495
2023-05-15T06:00:07.524Z,6.407
2023-05-15T06:01:07.563Z,6.247
2023-05-15T06:02:07.619Z,6.186
2023-05-15T06:03:07.762Z,6.022
2023-05-15T06:04:07.804Z,5.755
2023-05-15T06:05:07.631Z,5.607
2023-05-15T06:06:07.645Z,5.444
2023-05-15T06:07:07.673Z,5.266
2023-05-15T06:08:07.700Z,5.12
2023-05-15T06:09:07.720Z,5.044
2023-05-15T06:10:07.739Z,4.908
2023-05-15T06:11:07.761Z,4.865
2023-05-15T06:12:07.756Z,4.804
2023-05-15T06:13:07.765Z,4.597
2023-05-15T06:14:07.764Z,4.527
2023-05-15T06:15:07.776Z,4.479
2023-05-15T06:16:07.797Z,4.318
2023-05-15T06:17:08.075Z,4.186
2023-05-15T06:18:07.910Z,4.074
2023-05-15T06:19:08.030Z,4.122
2023-05-15T06:20:07.924Z,4.038
2023-05-15T06:21:07.948Z,3.917
2023-05-15T06:22:07.967Z,3.844
2023-05-15T06:23:07.996Z,3.615
2023-05-15T06:24:08.023Z,3.506
2023-05-15T06:25:08.083Z,3.572
2023-05-15T06:26:08.089Z,3.507
2023-05-15T06:27:07.111Z,3.429
2023-05-15T06:28:07.145Z,3.368
2023-05-15T06:29:07.155Z,3.421
2023-05-15T06:30:07.192Z,3.466
2023-05-15T06:31:07.308Z,3.088
2023-05-15T06:32:07.225Z,3.031
2023-05-15T06:33:07.309Z,2.95
2023-05-15T06:34:07.273Z,2.842
2023-05-15T06:35:07.285Z,2.748
2023-05-15T06:36:07.304Z,2.814
2023-05-15T06:37:07.325Z,2.642
2023-05-15T06:38:07.341Z,2.631
2023-05-15T06:39:07.354Z,2.332
2023-05-15T06:40:07.384Z,2.219
2023-05-15T06:41:07.390Z,2.173
2023-05-15T06:42:07.404Z,2.096
2023-05-15T06:43:07.412Z,1.828
2023-05-15T06:44:07.419Z,1.865
2023-05-15T06:45:07.461Z,1.831
2023-05-15T06:46:07.570Z,1.915
2023-05-15T06:47:07.591Z,2.023
2023-05-15T06:48:07.589Z,1.966
2023-05-15T06:49:07.566Z,1.91
2023-05-15T06:50:07.600Z,1.724
2023-05-15T06:51:07.650Z,1.787
2023-05-15T06:52:07.638Z,1.711
2023-05-15T06:53:07.687Z,1.787
2023-05-15T06:54:07.700Z,1.664
2023-05-15T06:55:07.729Z,1.654
2023-05-15T06:56:07.741Z,1.926
2023-05-15T06:57:07.764Z,1.865
2023-05-15T06:58:07.786Z,1.749
2023-05-15T06:59:07.816Z,1.838
2023-05-15T07:00:07.824Z,2.107
2023-05-15T07:01:07.848Z,1.832
2023-05-15T07:02:07.986Z,1.656
2023-05-15T07:03:07.948Z,1.844
2023-05-15T07:04:07.928Z,1.959
2023-05-15T07:05:08.009Z,2.007
2023-05-15T07:06:07.949Z,2.113
2023-05-15T07:07:07.968Z,1.984
2023-05-15T07:08:07.979Z,2.058
2023-05-15T08:45:43.599Z,7.856
2023-05-15T08:46:43.662Z,8.71
2023-05-15T08:47:43.641Z,8.365
2023-05-15T08:48:43.672Z,8.532
2023-05-15T08:49:43.582Z,8.648
2023-05-15T08:50:43.624Z,8.362
2023-05-15T08:51:43.614Z,8.422
2023-05-15T08:52:43.619Z,6.556
2023-05-15T08:53:43.627Z,6.636
2023-05-15T08:54:44.632Z,6.789
2023-05-15T08:55:43.659Z,6.657
2023-05-15T08:56:43.662Z,6.992
2023-05-15T08:57:43.677Z,6.731
2023-05-15T08:58:43.679Z,6.652
2023-05-15T08:59:43.687Z,6.967
2023-05-15T09:00:43.694Z,7.064
2023-05-15T09:01:43.774Z,6.961
2023-05-15T09:02:43.796Z,7.089
2023-05-15T09:03:43.738Z,7.295
2023-05-15T09:04:43.719Z,6.623
2023-05-15T09:05:43.751Z,6.355
2023-05-15T09:06:43.769Z,6.357
2023-05-15T09:07:43.737Z,6.131
2023-05-15T09:08:43.745Z,6.254
2023-05-15T09:09:43.753Z,6.485
2023-05-15T09:10:43.759Z,6.77
2023-05-15T09:11:43.780Z,6.435
2023-05-15T09:12:43.798Z,6.869
2023-05-15T09:13:43.775Z,6.996
2023-05-15T09:14:43.788Z,6.845
2023-05-15T09:15:43.790Z,6.449
2023-05-15T09:16:43.864Z,6.477
2023-05-15T09:17:43.853Z,6.729
2023-05-15T09:18:43.876Z,7.275
2023-05-15T09:19:43.868Z,7.075
2023-05-15T09:20:43.890Z,5.779
2023-05-15T09:21:43.917Z,5.804
2023-05-15T09:22:43.918Z,5.771
2023-05-15T09:23:43.943Z,5.729
2023-05-15T09:24:43.958Z,5.907
2023-05-15T09:25:43.956Z,6.191
2023-05-15T09:26:43.962Z,5.784
2023-05-15T09:27:43.962Z,5.81
2023-05-15T09:28:43.967Z,5.759
2023-05-15T09:29:44.016Z,6.036
2023-05-15T09:30:44.042Z,5.936
2023-05-15T09:31:44.067Z,5.844
2023-05-15T09:32:44.065Z,6.069
2023-05-15T09:33:44.052Z,6.143
2023-05-15T09:34:44.058Z,6.381
2023-05-15T09:35:44.073Z,5.985
2023-05-15T09:36:44.088Z,6.33
2023-05-15T09:37:44.083Z,6.478
2023-05-15T09:38:44.126Z,6.646
2023-05-15T09:39:43.108Z,6.669
2023-05-15T09:40:43.129Z,7.025
2023-05-15T09:41:43.139Z,6.79
2023-05-15T09:42:43.131Z,6.306
2023-05-15T09:43:43.143Z,6.184
2023-05-15T09:44:43.164Z,6.289
2023-05-15T09:45:43.298Z,6.388
2023-05-15T09:46:43.267Z,6.362
2023-05-15T09:47:43.312Z,6.486
2023-05-15T09:48:43.301Z,6.622
2023-05-15T09:49:43.228Z,6.6
2023-05-15T09:50:43.253Z,6.323
2023-05-15T09:51:43.246Z,6.074
2023-05-15T09:52:43.266Z,6.421
2023-05-15T09:53:43.271Z,6.737
2023-05-15T09:54:43.278Z,6.665
2023-05-15T09:55:43.277Z,7.049
2023-05-15T09:56:43.289Z,6.852
2023-05-15T09:57:43.305Z,6.923
2023-05-15T09:58:43.299Z,7.172
2023-05-15T09:59:43.317Z,7.086
2023-05-15T10:00:47.948Z,6.991
2023-05-15T10:01:43.362Z,6.911
2023-05-15T10:02:43.514Z,6.684
2023-05-15T10:03:43.380Z,6.008
2023-05-15T10:04:43.375Z,6.185
2023-05-15T10:05:44.099Z,6.412
2023-05-15T10:06:43.626Z,6.537
2023-05-15T10:07:43.424Z,7.226
2023-05-15T10:08:43.426Z,6.946
2023-05-15T10:09:43.411Z,6.567
2023-05-15T10:10:43.419Z,6.45
2023-05-15T10:11:43.493Z,6.598
2023-05-15T10:12:43.498Z,6.531
2023-05-15T10:13:43.504Z,6.09
2023-05-15T10:14:43.539Z,6.285
2023-05-15T10:15:43.667Z,6.242
2023-05-15T10:16:43.793Z,5.799
2023-05-15T10:17:43.701Z,6.131
2023-05-15T10:18:43.680Z,6.19
2023-05-15T10:19:56.634Z,6.818
2023-05-15T10:20:43.692Z,7.217
2023-05-15T10:21:43.741Z,6.602
2023-05-15T10:22:43.746Z,6.792
2023-05-15T10:23:43.776Z,7.126
2023-05-15T10:24:43.799Z,7.052
2023-05-15T10:25:43.839Z,6.901
2023-05-15T10:26:43.853Z,7.052
2023-05-15T10:27:43.872Z,7.47
2023-05-15T10:28:45.028Z,6.973
2023-05-15T10:29:43.915Z,6.798
2023-05-15T10:30:43.926Z,6.739
2023-05-15T10:31:44.004Z,6.516
2023-05-15T10:32:43.983Z,6.313
2023-05-15T10:33:43.985Z,6.574
2023-05-15T10:34:43.992Z,6.731
2023-05-15T10:35:44.006Z,7.382
2023-05-15T10:36:44.064Z,7.084
2023-05-15T10:37:44.020Z,7.09
2023-05-15T10:38:44.021Z,6.965
2023-05-15T10:39:44.051Z,6.862
2023-05-15T10:40:44.064Z,6.955
2023-05-15T10:41:44.045Z,7.081
2023-05-15T10:42:44.046Z,7.432
2023-05-15T10:43:44.072Z,7.825
2023-05-15T10:44:44.070Z,7.408
2023-05-15T10:45:43.111Z,7.61
2023-05-15T10:46:43.214Z,7.817
2023-05-15T10:47:43.180Z,7.587
2023-05-15T10:48:43.178Z,7.559
2023-05-15T10:49:43.198Z,7.591
2023-05-15T10:50:43.236Z,7.807
2023-05-15T10:51:43.285Z,7.516
2023-05-15T10:52:43.292Z,6.639
2023-05-15T10:53:43.313Z,6.967
2023-05-15T10:54:43.340Z,7.181
2023-05-15T10:55:43.370Z,7.395
2023-05-15T10:56:43.401Z,7.355
2023-05-15T10:57:43.404Z,7.651
2023-05-15T10:58:43.456Z,7.283
2023-05-15T10:59:43.463Z,7.388
2023-05-15T11:00:43.558Z,7.307
2023-05-15T11:01:43.606Z,7.77
2023-05-15T11:02:43.553Z,7.553
2023-05-15T11:03:49.225Z,7.163
2023-05-15T11:04:43.677Z,7.092
2023-05-15T11:05:43.576Z,7.237
2023-05-15T11:06:43.602Z,7.219
2023-05-15T11:07:43.611Z,7.368
2023-05-15T11:08:43.698Z,6.842
2023-05-15T11:09:43.643Z,6.919
2023-05-15T11:10:43.648Z,7.327
2023-05-15T11:11:43.657Z,6.876
2023-05-15T11:12:43.672Z,6.722
2023-05-15T11:13:43.704Z,6.845
2023-05-15T11:14:43.730Z,6.736
2023-05-15T11:15:43.747Z,6.606
2023-05-15T11:16:43.816Z,6.943
2023-05-15T11:17:43.876Z,6.935
2023-05-15T11:18:43.854Z,6.834
2023-05-15T11:19:43.864Z,6.511
2023-05-15T11:20:43.883Z,6.496
2023-05-15T11:21:43.916Z,6.755
2023-05-15T11:22:43.949Z,6.889
2023-05-15T11:23:43.958Z,6.872
2023-05-15T11:24:43.991Z,7.294
2023-05-15T11:25:44.018Z,7.288
2023-05-15T11:26:44.059Z,7.342
2023-05-15T11:27:44.078Z,6.873
2023-05-15T11:28:44.094Z,6.792
2023-05-15T11:29:43.114Z,6.844
2023-05-15T11:30:43.173Z,6.693
2023-05-15T11:31:43.149Z,6.994
2023-05-15T11:32:43.218Z,6.964
2023-05-15T11:33:43.436Z,7.387
2023-05-15T11:34:43.203Z,7.682
2023-05-15T11:35:43.287Z,7.673
2023-05-15T11:36:43.236Z,7.201
2023-05-15T11:37:43.243Z,7.146
2023-05-15T11:38:43.298Z,7.484
2023-05-15T11:39:43.266Z,7.675
2023-05-15T11:40:43.299Z,7.09
2023-05-15T11:41:43.306Z,6.752
2023-05-15T11:42:43.322Z,7.091
2023-05-15T11:43:43.374Z,7.062
2023-05-15T11:44:43.382Z,7.175
2023-05-15T11:45:43.427Z,7.044
2023-05-15T11:46:43.526Z,7.149
2023-05-15T11:47:43.497Z,7.28
2023-05-15T11:48:43.504Z,7.358
2023-05-15T11:49:43.529Z,7.227
2023-05-15T11:50:43.546Z,7.747
2023-05-15T11:51:43.595Z,7.203
2023-05-15T11:52:43.622Z,7.173
2023-05-15T11:53:43.631Z,7.416
2023-05-15T11:54:43.656Z,7.149
2023-05-15T11:55:43.689Z,7.294
2023-05-15T11:56:43.715Z,7.233
2023-05-15T11:57:43.878Z,7.259
2023-05-15T11:58:43.765Z,7.233
2023-05-15T11:59:43.778Z,7.439
2023-05-15T12:00:43.801Z,6.534
2023-05-15T12:01:43.823Z,7.181
2023-05-15T12:02:43.910Z,6.565
2023-05-15T12:03:44.063Z,6.784
2023-05-15T12:04:43.929Z,6.619
2023-05-15T12:05:54.048Z,6.382
2023-05-15T12:06:43.927Z,6.756
2023-05-15T12:07:43.929Z,6.485
2023-05-15T12:08:43.959Z,6.422
2023-05-15T12:09:43.957Z,6.473
2023-05-15T12:10:43.953Z,6.852
2023-05-15T12:11:43.985Z,6.618
2023-05-15T12:12:44.008Z,6.864
2023-05-15T12:13:44.029Z,6.794
2023-05-15T12:14:44.050Z,7.108
2023-05-15T12:15:44.068Z,6.92
2023-05-15T12:16:44.114Z,7.393
2023-05-15T12:17:43.139Z,7.782
2023-05-15T12:18:43.175Z,7.157
2023-05-15T12:19:43.145Z,7.531
2023-05-15T12:20:43.207Z,6.867
2023-05-15T12:21:43.216Z,7.213
2023-05-15T12:22:43.203Z,7.803
2023-05-15T12:23:44.379Z,7.463
2023-05-15T12:24:43.256Z,7.846
2023-05-15T12:25:43.260Z,7.486
2023-05-15T12:26:43.502Z,7.401
2023-05-15T12:27:43.284Z,7.434
2023-05-15T12:28:43.317Z,7.922
2023-05-15T12:29:43.343Z,8.223
2023-05-15T12:30:43.355Z,8.33
2023-05-15T12:31:43.428Z,8.555
2023-05-15T12:32:43.408Z,8.296
2023-05-15T12:33:43.390Z,8.272
2023-05-15T12:34:43.389Z,8.179
2023-05-15T12:35:43.424Z,8.054
2023-05-15T12:36:43.433Z,8.254
2023-05-15T12:37:43.472Z,7.947
2023-05-15T12:38:43.491Z,7.807
2023-05-15T12:39:43.513Z,8.352
2023-05-15T12:40:43.547Z,8.01
2023-05-15T12:41:43.583Z,8.057
2023-05-15T12:42:43.621Z,7.921
2023-05-15T12:43:43.656Z,7.899
2023-05-15T12:44:43.652Z,7.226
2023-05-15T12:45:43.711Z,6.629
2023-05-15T12:46:43.739Z,6.772
2023-05-15T12:47:43.775Z,6.642
2023-05-15T12:48:43.765Z,6.948
2023-05-15T12:49:43.794Z,6.294
2023-05-15T12:50:43.799Z,5.314
2023-05-15T12:51:43.851Z,5.806
2023-05-15T12:52:43.923Z,6.69
2023-05-15T12:53:43.891Z,6.676
2023-05-15T12:54:43.901Z,7.038
2023-05-15T12:55:43.919Z,7.348
2023-05-15T12:56:43.930Z,6.448
2023-05-15T12:57:43.956Z,6.4
2023-05-15T12:58:43.966Z,6.169
2023-05-15T12:59:44.003Z,6.223
2023-05-15T13:00:43.990Z,6.474
2023-05-15T13:01:44.021Z,6.624
2023-05-15T13:02:44.081Z,6.69
2023-05-15T13:03:44.273Z,6.829
2023-05-15T13:04:44.034Z,7.135
2023-05-15T13:05:44.060Z,6.712
2023-05-15T13:06:47.023Z,6.985
2023-05-15T13:07:43.128Z,7.172
2023-05-15T13:08:43.906Z,7.073
2023-05-15T13:09:43.148Z,7.019
2023-05-15T13:10:43.177Z,6.955
2023-05-15T13:11:43.255Z,7.147
2023-05-15T13:12:43.251Z,7.399
2023-05-15T13:13:43.265Z,7.512
2023-05-15T13:14:43.284Z,7.547
2023-05-15T13:15:43.344Z,7.857
2023-05-15T13:16:43.336Z,8.013
2023-05-15T13:17:43.415Z,8.246
2023-05-15T13:18:43.419Z,8.291
2023-05-15T13:19:43.390Z,8.432
2023-05-15T13:20:43.415Z,8.132
2023-05-15T13:21:43.456Z,8.438
2023-05-15T13:22:43.471Z,8.585
2023-05-15T13:23:43.486Z,8.113
2023-05-15T13:24:43.505Z,7.81
2023-05-15T13:25:43.497Z,7.962
2023-05-15T13:26:43.526Z,8.064
2023-05-15T13:27:43.530Z,8.339
2023-05-15T13:28:43.556Z,8.503
2023-05-15T13:29:43.570Z,8.028
2023-05-15T13:30:43.602Z,7.953
2023-05-15T13:31:43.597Z,8.18
2023-05-15T13:32:43.621Z,8.105
2023-05-15T13:33:43.633Z,7.853
2023-05-15T13:34:43.661Z,7.801
2023-05-15T13:35:43.688Z,7.775
2023-05-15T13:36:43.710Z,7.8
2023-05-15T13:37:43.726Z,7.852
2023-05-15T13:38:43.765Z,7.149
2023-05-15T13:39:43.783Z,7.279
2023-05-15T13:40:43.802Z,7.539
2023-05-15T13:41:43.840Z,7.149
2023-05-15T13:42:43.857Z,6.855
2023-05-15T13:43:43.886Z,7.111
2023-05-15T13:44:43.946Z,7.139
2023-05-15T13:45:43.931Z,7.326
2023-05-15T13:46:43.991Z,7.128
2023-05-15T13:47:44.010Z,6.526
2023-05-15T13:48:43.980Z,6.825
2023-05-15T13:49:43.988Z,7.056
2023-05-15T13:50:44.012Z,7.07
2023-05-15T13:51:44.020Z,7.013
2023-05-15T13:52:44.050Z,7.307
2023-05-15T13:53:44.061Z,6.769
2023-05-15T13:54:44.070Z,6.684
2023-05-15T13:55:44.170Z,6.41
2023-05-15T13:56:43.112Z,6.755
2023-05-15T13:57:43.138Z,6.551
2023-05-15T13:58:43.210Z,6.61
2023-05-15T13:59:43.194Z,5.988
2023-05-15T14:00:43.241Z,5.96
2023-05-15T14:01:43.242Z,6.086
2023-05-15T14:02:43.433Z,6.17
2023-05-15T14:03:43.351Z,6.571
2023-05-15T14:04:43.324Z,7.155
2023-05-15T14:05:43.356Z,7.354
2023-05-15T14:06:43.369Z,7.614
2023-05-15T14:07:43.409Z,7.651
2023-05-15T14:08:43.415Z,7.668
2023-05-15T14:09:43.469Z,7.702
2023-05-15T14:10:43.473Z,7.692
2023-05-15T14:11:43.504Z,7.601
2023-05-15T14:12:43.538Z,7.564
2023-05-15T14:13:43.545Z,7.568
2023-05-15T14:14:43.570Z,7.564
2023-05-15T14:15:43.614Z,7.486
2023-05-15T14:16:43.741Z,7.621
2023-05-15T14:17:43.683Z,7.58
2023-05-15T14:18:43.715Z,7.685
2023-05-15T14:19:43.666Z,7.872
2023-05-15T14:20:43.684Z,7.875
2023-05-15T14:21:43.714Z,7.905
2023-05-15T14:22:43.696Z,7.916
2023-05-15T14:23:43.703Z,8.05
2023-05-15T14:24:43.732Z,8.182
2023-05-15T14:25:43.725Z,8.204
2023-05-15T14:26:43.753Z,8.156
2023-05-15T14:27:43.773Z,8.179
2023-05-15T14:28:43.828Z,8.1
2023-05-15T14:29:43.848Z,8.136
2023-05-15T14:30:43.878Z,8.155
2023-05-15T14:31:43.929Z,8.15
2023-05-15T14:32:43.931Z,8.099